Tiempo atmosférico en la estación meteorológica de Tomelloso, Ciudad Real (662 m.)



Fecha
DESCASC
Temp. máxima en grados centígrados (hora)
DESCASC
Temp. mínima en grados centígrados (hora)
DESCASC
Temp. media en grados centígrados
DESCASC
Racha de viento máxima en m/sg (hora)
DESCASC
Velocidad máxima media en intervalos de 10 minutos(hora)
DESCASC
Precipitaciones diarias en mm
DESCASC
Precipitaciones de 00:00 a 06:00 en mm
DESCASC
Precipitaciones de 06:00 a 12:00 en mm
DESCASC
Precipitaciones de 12:00 a 18:00 en mm
DESCASC
Precipitaciones de 18:00 a 24:00 en mm
DESCASC
23-06-2019 36.4 (18:10) 19.8 (07:20) 28.1 10.28 (22:50) 6.67 (22:50) 0 0 0 0 0
22-06-2019 33.8 (17:00) 14.1 (06:50) 23.9 16.67 (07:20) 3.89 (03:40) 0 0 0 0 0
21-06-2019 31.7 (18:30) 17.1 (07:20) 24.4 10.83 (09:20) 3.61 (16:30) 0 0 0 0 0
20-06-2019 31.6 (17:50) 14.6 (00:00) 23.1 11.94 (17:10) 3.89 (16:30) 0 0 0 0 0
19-06-2019 31.2 (18:10) 16.7 (00:00) 24 13.61 (17:40) 4.44 (12:50) 0 0 0 0 0
18-06-2019 32.1 (15:40) 19.6 (00:00) 25.8 14.72 (16:30) 6.11 (17:40) 0 0 0 0 0
17-06-2019 32.9 (17:50) 15.8 (00:00) 24.4 10 (18:30) 4.17 (19:10) 0 0 0 0 0
16-06-2019 30.5 (17:30) 9.4 (00:00) 19.9 14.17 (19:10) 5.28 (08:40) 0 0 0 0 0
15-06-2019 26.9 (17:20) 11.5 (00:00) 19.2 8.89 (09:20) 3.89 (15:40) 0 0 0 0 0
14-06-2019 27.3 (17:50) 16.5 (00:00) 21.9 12.22 (18:50) 5.28 (13:00) 0 0 0 0 0
13-06-2019 29.8 (18:40) 13.2 (00:00) 21.5 17.22 (20:20) 7.22 (21:30) 0 0 0 0 0
12-06-2019 27.9 (18:30) 8.4 (00:00) 18.1 10.56 (17:30) 5 (08:40) 0 0 0 0 0
11-06-2019 25 (16:10) 14 (00:00) 19.5 -- (--) -- (--) 0 0 0 0 0
10-06-2019 27.8 (17:50) 13.5 (00:00) 20.6 -- (--) -- (--) 0 0 0 0 0
09-06-2019 29.3 (17:10) 15.3 (00:00) 22.3 16.11 (20:20) 5 (15:30) 0 0 0 0 0
08-06-2019 30.7 (18:00) 8.4 (00:00) 19.6 -- (--) -- (--) 0 0 0 0 0
07-06-2019 24.6 (17:40) 13.4 (00:00) 19 16.67 (12:40) 4.72 (07:40) 0 0 0 0 0
06-06-2019 27.3 (18:10) 10.1 (00:00) 18.7 12.22 (20:00) 5.83 (16:30) 0 0 0 0 0
05-06-2019 23.4 (15:20) 12.3 (00:00) 17.8 11.67 (07:00) 6.11 (10:30) 0 0 0 0 0
04-06-2019 31.7 (17:20) 17.6 (00:00) 24.7 11.39 (15:50) 5.83 (14:50) 0 0 0 0 0
03-06-2019 35.5 (18:20) 14.5 (00:00) 25 -- (--) 4.72 (01:00) 0 0 0 0 0
02-06-2019 34.3 (16:20) 11.1 (00:00) 22.7 -- (--) -- (--) 0 0 0 0 0
01-06-2019 31.6 (17:20) 11.1 (00:00) 21.4 11.94 (19:00) 5.83 (18:30) 0 0 0 0 0
31-05-2019 30.3 (16:10) 10.6 (00:00) 20.4 16.39 (09:50) 6.94 (19:30) 0 0 0 0 0
30-05-2019 28.5 (17:30) 10 (00:00) 19.3 19.17 (20:30) 6.39 (17:40) 0 0 0 0 0
29-05-2019 27.4 (18:40) 10 (00:00) 18.7 21.94 (20:40) 6.39 (00:20) 0 0 0 0 0
28-05-2019 29.9 (17:00) 12 (00:00) 20.9 13.06 (10:40) 5.28 (23:59) 0 0 0 0 0
27-05-2019 31 (18:20) 8.6 (00:00) 19.8 -- (--) -- (--) 0 0 0 0 0
26-05-2019 27.1 (16:30) 9.9 (00:00) 18.5 -- (--) 5.83 (19:40) 0 0 0 0 0

Gráficas

Temp. máximas Temp. mínimas Temp. medias Precipitaciones Rachas de viento máximas Velocidades máximas media en intervalos de 10 minutos

Datos horarios

Fecha y hora oficial Temperatura (ºC) Velocidad del viento (km/h) Dirección del viento Racha (km/h) Dirección de racha Precipitación (mm) Presión (hPa) Tendencia (hPa) Humedad (%)
2019-06-24 23:00:00 27.8 6 Noroeste 12 Noroeste 0 938.8 1.8 29
2019-06-24 22:00:00 30.2 5 Oeste 21 Sudoeste 0 937.9 1.1 26
2019-06-24 21:00:00 31.6 8 Oeste 28 Nordeste 0 937.6 0.4 23
2019-06-24 20:00:00 32.6 6 Sudeste 48 Oeste 0 937 -0.4 22
2019-06-24 19:00:00 33.9 6 Sudoeste 66 Sudoeste 0 936.8 -1 21
2019-06-24 18:00:00 33.9 7 Norte 66 Noroeste 0 937.2 -0.9 20
2019-06-24 17:00:00 33.2 6 Oeste 58 Noroeste 0 937.4 -1.1 20
2019-06-24 16:00:00 33.4 8 Oeste 71 Noroeste 0 937.8 -1 19
2019-06-24 15:00:00 31.3 10 Sudoeste 50 Sudeste 0 938.1 -1 22
2019-06-24 14:00:00 30.7 8 Sudoeste 49 Noroeste 0 938.5 -0.5 23
2019-06-24 13:00:00 29.7 6 Oeste 18 Oeste 0 938.8 -0.4 23
2019-06-24 12:00:00 27.5 8 Sur 16 Sur 0 939.1 0.1 28
2019-06-24 11:00:00 26.8 5 Sudoeste 17 Sudoeste 0 939 0.4 32
2019-06-24 10:00:00 25 8 Sudoeste 15 Sur 0 939.2 1.2 41
2019-06-24 09:00:00 20.5 4 Nordeste 6 Nordeste 0 939 1.2 51
2019-06-24 08:00:00 17.7 3 Este 11 Nordeste 0 938.6 0.7 48
2019-06-24 07:00:00 19.4 4 Sudeste 18 Sur 0 938 0.1 52
2019-06-24 06:00:00 21.5 13 Sur 28 Sur 0 937.8 0 44
2019-06-24 05:00:00 21.8 15 Sur 27 Sur 0 937.9 0.4 36
2019-06-24 04:00:00 22 15 Sur 26 Sur 0 937.9 0.8 32
2019-06-24 03:00:00 23.6 16 Sur 27 Sur 0 937.8 0.9 35
2019-06-24 02:00:00 24.5 15 Sur 26 Sur 0 937.5 0.7 33
2019-06-24 01:00:00 24.7 13 Sur 26 Este 0 937.1 1.2 28
2019-06-24 00:00:00 26.2 20 Este 33 Este 0 936.9 1.3 23
2019-06-23 23:00:00 28 24 Este 37 Este 0 936.8 1.4 20
2019-06-23 22:00:00 30 19 Este 36 Este 0 935.9 0.5 18
2019-06-23 21:00:00 31.8 22 Este 33 Este 0 935.6 -0.3 17
2019-06-23 20:00:00 33.8 9 Nordeste 24 Nordeste 0 935.4 -1 15
2019-06-23 19:00:00 35.6 11 Nordeste 19 Norte 0 935.4 -1.7 16
2019-06-23 18:00:00 36.1 6 Norte 19 Noroeste 0 935.9 -1.9 15
2019-06-23 17:00:00 35.1 6 Oeste 18 Noroeste 0 936.4 -2 16
2019-06-23 16:00:00 34 8 Sudoeste 19 Sudoeste 0 937.1 -1.9 18
2019-06-23 15:00:00 33.1 12 Nordeste 23 Norte 0 937.8 -1.4 19
2019-06-23 14:00:00 31.9 7 Nordeste 17 Sudoeste 0 938.4 -1 20
2019-06-23 13:00:00 30.2 8 Sudoeste 17 Sudoeste 0 939 -0.4 22
2019-06-23 12:00:00 29.2 5 Sudoeste 15 Oeste 0 939.2 -0.2 23
2019-06-23 11:00:00 27.4 8 Sudoeste 20 Sur 0 939.4 0.3 25
2019-06-23 10:00:00 25.6 8 Sudoeste 16 Sudoeste 0 939.4 0.9 30
2019-06-23 09:00:00 22.7 10 Sur 22 Sur 0 939.4 1.3 43
2019-06-23 08:00:00 20.3 14 Sur 21 Sur 0 939.1 1 49
2019-06-23 07:00:00 20.1 14 Sur 23 Sur 0 938.5 0.5 46
2019-06-23 06:00:00 20.7 11 Sur 19 Sur 0 938.1 0 41
2019-06-23 05:00:00 21.3 9 Sur 18 Sur 0 938.1 -0.1 39
2019-06-23 04:00:00 21.8 10 Sur 17 Sur 0 938 -0.4 32
2019-06-23 03:00:00 22.5 9 Sur 15 Sur 0 938.1 0 28
2019-06-23 02:00:00 21.9 5 Sur 12 Sur 0 938.2 0.4 28
2019-06-23 01:00:00 22.1 8 Sur 13 Sur 0 938.4 1.2 25
2019-06-23 00:00:00 24.7 5 Sudoeste 10 Sudoeste 0 938.1 1.1 25
2019-06-22 23:00:00 25.6 3 Sur 7 Oeste 0 937.8 0.9 24
2019-06-22 22:00:00 27.3 3 Noroeste 12 Oeste 0 937.2 0.2 21
2019-06-22 21:00:00 30.7 5 Oeste 14 Oeste 0 937 -0.5 16
2019-06-22 20:00:00 31.6 5 Sudoeste 21 Oeste 0 936.9 -1.1 16
2019-06-22 19:00:00 32.7 10 Sur 26 Sudoeste 0 937 -1.5 15
2019-06-22 18:00:00 33 10 Sudoeste 22 Sudoeste 0 937.5 -1.6 15
2019-06-22 17:00:00 33.6 4 Norte 24 Oeste 0 938 -1.8 15
2019-06-22 16:00:00 32 10 Oeste 23 Oeste 0 938.5 -1.8 16
2019-06-22 15:00:00 31.1 5 Sudoeste 21 Oeste 0 939.1 -1.5 18
2019-06-22 14:00:00 29.5 9 Sudoeste 22 Oeste 0 939.8 -0.8 20
2019-06-22 13:00:00 28.9 6 Sudeste 19 Oeste 0 940.3 -0.6 21
2019-06-22 12:00:00 26.7 5 Oeste 14 Sudoeste 0 940.6 -0.1 24
2019-06-22 11:00:00 24.7 5 Sudeste 13 Sur 0 940.6 0.1 37
2019-06-22 10:00:00 21.8 6 Sudeste 16 Sudeste 0 940.9 1 52
2019-06-22 09:00:00 18.8 11 Este 17 Este 0 940.7 1 68
2019-06-22 08:00:00 16 8 Este 60 Sudoeste 0 940.5 0.8 76
2019-06-22 07:00:00 14.2 3 Nordeste 10 Este 0 939.9 0 82
2019-06-22 06:00:00 14.5 8 Este 13 Este 0 939.7 -0.4 78
2019-06-22 05:00:00 15.2 6 Este 18 Este 0 939.7 -0.3 75
2019-06-22 04:00:00 16.6 13 Este 21 Este 0 939.9 -0.1 72
2019-06-22 03:00:00 17.7 11 Este 21 Este 0 940.1 0.5 70
2019-06-22 02:00:00 17.5 9 Este 23 Este 0 940 0.8 58
2019-06-22 01:00:00 20.4 5 Noroeste 12 Noroeste 0 940 1.4 30
2019-06-22 00:00:00 23 5 Oeste 15 Oeste 0 939.6 1.3 24
2019-06-21 23:00:00 23.4 5 Oeste 12 Oeste 0 939.2 1.1 21
2019-06-21 22:00:00 25.2 5 Oeste 14 Oeste 0 938.6 0.7 17
2019-06-21 21:00:00 27.8 7 Oeste 23 Oeste 0 938.3 0.2 13
2019-06-21 20:00:00 28.8 9 Noroeste 23 Oeste 0 938.1 -0.2 13
2019-06-21 19:00:00 30.9 9 Noroeste 28 Norte 0 937.9 -0.7 13
2019-06-21 18:00:00 30.9 10 Noroeste 30 Noroeste 0 938.1 -0.7 13
2019-06-21 17:00:00 30.2 10 Oeste 31 Noroeste 0 938.3 -0.9 16
2019-06-21 16:00:00 30.6 9 Oeste 29 Noroeste 0 938.6 -1.2 17
2019-06-21 15:00:00 29.1 8 Oeste 27 Oeste 0 938.8 -1.1 22
2019-06-21 14:00:00 27.5 9 Oeste 24 Sudoeste 0 939.2 -0.7 27
2019-06-21 13:00:00 27 9 Oeste 23 Sudoeste 0 939.8 -0.2 30
2019-06-21 12:00:00 25.2 9 Oeste 21 Oeste 0 939.9 0.1 34
2019-06-21 11:00:00 23.6 8 Oeste 29 Sudoeste 0 939.9 0.5 39
2019-06-21 10:00:00 21.5 8 Sudoeste 39 Oeste 0 940 1 46
2019-06-21 09:00:00 19.3 12 Sudoeste 22 Sudoeste 0 939.8 1 53
2019-06-21 08:00:00 17.6 9 Sudoeste 17 Sudoeste 0 939.4 0.9 57
2019-06-21 07:00:00 17.4 8 Sudoeste 19 Sudoeste 0 939 0.6 56
2019-06-21 06:00:00 18.3 7 Oeste 17 Sudoeste 0 938.8 0.4 52
2019-06-21 05:00:00 19.3 8 Sudoeste 14 Sudoeste 0 938.5 -0.1 51
2019-06-21 04:00:00 19.9 6 Oeste 15 Oeste 0 938.4 0.1 50
2019-06-21 03:00:00 20.7 5 Sudoeste 13 Oeste 0 938.4 0.5 46
2019-06-21 02:00:00 19.9 4 Sur 11 Oeste 0 938.6 1.3 45
2019-06-21 01:00:00 22.3 6 Sudoeste 14 Sudoeste 0 938.3 1.9 38
2019-06-21 00:00:00 23.5 4 Oeste 16 Oeste 0 937.9 2 34
2019-06-20 23:00:00 24.8 8 Oeste 18 Oeste 0 937.3 1.5 32
2019-06-20 22:00:00 26 7 Oeste 21 Oeste 0 936.4 0.6 29
2019-06-20 21:00:00 27.5 9 Noroeste 36 Noroeste 0 935.9 -0.1 27
2019-06-20 20:00:00 29 10 Oeste 30 Noroeste 0 935.8 -0.6 24
2019-06-20 19:00:00 30.8 11 Oeste 30 Oeste 0 935.8 -1.2 21
2019-06-20 18:00:00 31.3 8 Oeste 43 Oeste 0 936 -1.8 20
2019-06-20 17:00:00 31.5 8 Noroeste 28 Oeste 0 936.4 -1.9 21
2019-06-20 16:00:00 29.1 8 Sudoeste 24 Noroeste 0 937 -1.8 25
2019-06-20 15:00:00 29.1 9 Noroeste 27 Oeste 0 937.8 -1.2 26
2019-06-20 14:00:00 27.3 8 Oeste 21 Sudoeste 0 938.3 -0.8 28
2019-06-20 13:00:00 26.9 9 Oeste 20 Oeste 0 938.8 -0.4 31
2019-06-20 12:00:00 25.1 6 Oeste 16 Oeste 0 939 -0.4 35
2019-06-20 11:00:00 23.9 5 Sudoeste 15 Noroeste 0 939.1 -0.2 39
2019-06-20 10:00:00 22.1 4 Sur 9 Sudoeste 0 939.2 0.1 43
2019-06-20 09:00:00 19.6 5 Sudoeste 10 Sudoeste 0 939.4 0.5 50
2019-06-20 08:00:00 16.1 4 Sur 10 Sur 0 939.3 0.3 59
2019-06-20 07:00:00 14.6 6 Sur 9 Sur 0 939.1 -0.2 64
2019-06-20 06:00:00 15.8 6 Sur 8 Sur 0 938.9 -0.6 61
2019-06-20 05:00:00 15.9 5 Sudoeste 7 Sudoeste 0 939 -0.8 57
2019-06-20 04:00:00 16.3 3 Sur 6 Sur 0 939.3 -0.3 54
2019-06-20 03:00:00 17.2 4 Sur 7 Sur 0 939.5 0.1 52
2019-06-20 02:00:00 19.2 3 Oeste 9 Oeste 0 939.8 0.7 47
2019-06-20 01:00:00 20.1 5 Noroeste 13 Noroeste 0 939.6 1.2 43
2019-06-20 00:00:00 21.3 6 Noroeste 16 Oeste 0 939.4 1.3 40
2019-06-19 23:00:00 22.8 7 Noroeste 14 Noroeste 0 939.1 1.2 36
2019-06-19 22:00:00 24.6 5 Noroeste 23 Noroeste 0 938.4 0.7 32
2019-06-19 21:00:00 26.6 10 Noroeste 30 Noroeste 0 938.1 0 28
2019-06-19 20:00:00 28 13 Oeste 33 Oeste 0 937.9 -0.6 26
2019-06-19 19:00:00 29.8 14 Oeste 33 Oeste 0 937.7 -1.4 24
2019-06-19 18:00:00 30.4 14 Oeste 49 Noroeste 0 938.1 -1.6 23
2019-06-19 17:00:00 30.3 10 Oeste 32 Oeste 0 938.5 -1.9 23
2019-06-19 16:00:00 29.2 12 Oeste 34 Oeste 0 939.1 -1.4 25
2019-06-19 15:00:00 28 15 Oeste -- -- -- 939.7 -1.1 28
2019-06-19 14:00:00 27 13 Oeste 33 Oeste 0 940.4 -0.5 30
2019-06-19 13:00:00 25.2 11 Oeste 31 Oeste 0 940.5 -0.8 36
2019-06-19 12:00:00 23.5 10 Oeste 24 Sudoeste 0 940.8 -0.3 44
2019-06-19 11:00:00 22.2 10 Oeste 19 Sudoeste 0 940.9 0.1 50
2019-06-19 10:00:00 20.7 10 Oeste 23 Oeste 0 941.3 1 55
2019-06-19 09:00:00 19.1 10 Oeste 20 Sudoeste 0 941.1 1.2 60
2019-06-19 08:00:00 17.5 8 Sudoeste 16 Sudoeste 0 940.8 1 59
2019-06-19 07:00:00 16.8 6 Sudoeste 20 Sudoeste 0 940.3 0.7 59
2019-06-19 06:00:00 17.9 8 Sudoeste 21 Sudoeste 0 939.9 0.2 51
2019-06-19 05:00:00 18.6 7 Sudoeste 18 Sudoeste 0 939.8 -0.2 45
2019-06-19 04:00:00 18.9 8 Sudoeste 17 Sudoeste 0 939.6 -0.2 33
2019-06-19 03:00:00 20 11 Sudoeste 19 Sudoeste 0 939.7 -0.2 24
2019-06-19 02:00:00 20.5 9 Sudoeste 19 Sudoeste 0 940 0.6 20
2019-06-19 01:00:00 21.9 12 Sudoeste 23 Sudoeste 0 939.8 1 15
2019-06-19 00:00:00 22.3 10 Sudoeste 19 Sudoeste 0 939.9 1.6 14
2019-06-18 23:00:00 24 10 Sudoeste 28 Sudoeste 0 939.4 1.5 14
2019-06-18 22:00:00 26.2 9 Sudoeste 27 Sudoeste 0 938.8 1.1 14
2019-06-18 21:00:00 28.1 15 Sudoeste 36 Sudoeste 0 938.3 0.5 12
2019-06-18 20:00:00 29.2 17 Sudoeste 37 Oeste 0 937.9 -0.1 11
2019-06-18 19:00:00 30.6 18 Sudoeste 41 Oeste 0 937.7 -0.4 11
2019-06-18 18:00:00 31.1 20 Sudoeste 42 Sudoeste 0 937.8 -0.7 11
2019-06-18 17:00:00 31.8 19 Sudoeste 53 Sudoeste 0 938 -1 11
2019-06-18 16:00:00 31.7 16 Sudoeste 41 Oeste 0 938.1 -1.5 11
2019-06-18 15:00:00 31.2 17 Sudoeste 39 Sudoeste 0 938.5 -1.5 12
2019-06-18 14:00:00 30.3 13 Sudoeste 31 Sur 0 939 -1 14
2019-06-18 13:00:00 29 11 Sudoeste 23 Sudoeste 0 939.6 -0.7 19
2019-06-18 12:00:00 27.3 9 Oeste 21 Sur 0 940 -0.2 24
2019-06-18 11:00:00 25.3 6 Sudoeste 15 Sudoeste 0 940 0.1 27
2019-06-18 10:00:00 23 10 Sudoeste 23 Sudoeste 0 940.3 0.8 31
2019-06-18 09:00:00 21.4 13 Sur 33 Sur 0 940.2 1 36
2019-06-18 08:00:00 19.8 12 Sur 19 Sudoeste 0 939.9 1 36
2019-06-18 07:00:00 19.7 12 Sur 19 Sudoeste 0 939.5 0.3 31
2019-06-18 06:00:00 20.9 9 Sudoeste 20 Sudoeste 0 939.2 -0.3 24
2019-06-18 05:00:00 21.4 11 Sudoeste 21 Oeste 0 938.9 -0.6 23
2019-06-18 04:00:00 22.1 9 Sudoeste 18 Sudoeste 0 939.2 -0.3 20
2019-06-18 03:00:00 22.5 8 Sudoeste 17 Sudoeste 0 939.5 0.1 21
2019-06-18 02:00:00 22 9 Sudoeste 16 Sudoeste 0 939.5 0.7 23
2019-06-18 01:00:00 22.8 6 Sudoeste 17 Sudoeste 0 939.5 1.3 20
2019-06-18 00:00:00 24.7 9 Sudoeste 17 Sudoeste 0 939.4 1.3 16
2019-06-17 23:00:00 26.2 8 Sudoeste 17 Sudoeste 0 938.8 0.8 15
2019-06-17 22:00:00 27.8 6 Sudoeste 17 Sudoeste 0 938.2 0.3 14
2019-06-17 21:00:00 29.8 7 Oeste 27 Sudoeste 0 938.1 -0.3 11
2019-06-17 20:00:00 30.9 14 Sudoeste 28 Sur 0 938 -0.9 11
2019-06-17 19:00:00 32.7 13 Sudoeste 36 Sudoeste 0 937.9 -1.8 10
2019-06-17 18:00:00 32.1 14 Sur 28 Sur 0 938.4 -2.1 12
2019-06-17 17:00:00 32.3 12 Sudoeste 27 Sur 0 938.9 -2.5 14
2019-06-17 16:00:00 31.8 11 Sudoeste 25 Sudoeste 0 939.7 -2.2 14
2019-06-17 15:00:00 30 9 Sur 30 Sudoeste 0 940.5 -1.6 17
2019-06-17 14:00:00 28.7 11 Sur 23 Sudoeste 0 941.4 -1.1 18
2019-06-17 13:00:00 27.4 6 Sudoeste 17 Oeste 0 941.9 -0.8 21
2019-06-17 12:00:00 26 8 Oeste 31 Oeste 0 942.1 -0.4 23
2019-06-17 11:00:00 24.2 9 Oeste 21 Sudoeste 0 942.5 0.3 27
2019-06-17 10:00:00 22.5 10 Sudoeste 22 Oeste 0 942.7 0.8 29
2019-06-17 09:00:00 20 10 Sudoeste 22 Sur 0 942.5 0.7 38
2019-06-17 08:00:00 17 12 Sur 21 Sur 0 942.2 0.5 45
2019-06-17 07:00:00 15.8 13 Sur 19 Sudoeste 0 941.9 0.1 42
2019-06-17 06:00:00 17 9 Sudoeste 16 Sudoeste 0 941.8 -0.2 37
2019-06-17 05:00:00 17.9 7 Sudoeste 15 Sudoeste 0 941.7 -0.3 34
2019-06-17 04:00:00 18.6 9 Sur 17 Sudoeste 0 941.8 -0.3 31
2019-06-17 03:00:00 20 7 Sudoeste 18 Sudoeste 0 942 0 28
2019-06-17 02:00:00 20.5 9 Sudoeste 18 Sudoeste 0 942 0.3 27
2019-06-17 01:00:00 18.5 3 Sur 7 Sur 0 942.1 1.2 29
2019-06-17 00:00:00 21.8 6 Sur 20 Sudoeste 0 942 1.4 23
2019-06-16 23:00:00 23.5 5 Oeste 13 Sur 0 941.7 1.2 18
2019-06-16 22:00:00 24.9 9 Sudeste 21 Este 0 940.9 0.7 26
2019-06-16 21:00:00 26.7 12 Sudeste 26 Este 0 940.6 0.2 21
2019-06-16 20:00:00 28.3 12 Este 51 Norte 0 940.5 -0.1 19
2019-06-16 19:00:00 29.1 4 Nordeste 60 Este 0 940.2 -0.8 16
2019-06-16 18:00:00 29.9 5 Nordeste 28 Este 0 940.4 -1.2 12
2019-06-16 17:00:00 30.1 7 Norte 16 Norte 0 940.6 -1.6 14
2019-06-16 16:00:00 29.8 5 Norte 17 Norte 0 941 -1.4 14
2019-06-16 15:00:00 28.9 6 Sur 20 Oeste 0 941.6 -0.8 16
2019-06-16 14:00:00 28.2 9 Oeste 20 Sudoeste 0 942.2 -0.2 16
2019-06-16 13:00:00 26.7 10 Oeste 25 Este 0 942.4 -0.1 24
2019-06-16 12:00:00 26 17 Nordeste 26 Nordeste 0 942.4 -0.1 29
2019-06-16 11:00:00 23.5 18 Nordeste 24 Este 0 942.4 0.3 34
2019-06-16 10:00:00 19.8 17 Nordeste 23 Este 0 942.5 0.6 43
2019-06-16 09:00:00 17 16 Este 28 Nordeste 0 942.5 0.8 49
2019-06-16 08:00:00 13.5 16 Este 24 Este 0 942.1 0.3 54
2019-06-16 07:00:00 9.6 4 Este 12 Nordeste 0 941.9 -0.4 49
2019-06-16 06:00:00 10.2 5 Nordeste 13 Nordeste 0 941.7 -1 47
2019-06-16 05:00:00 10.6 4 Nordeste 12 Nordeste 0 941.8 -1.2 45
2019-06-16 04:00:00 12.7 3 Sudeste 9 Sur 0 942.3 -1 39
2019-06-16 03:00:00 15.9 7 Sur 14 Sur 0 942.7 -0.3 32
2019-06-16 02:00:00 13.5 4 Sur 10 Este 0 943 0.3 35
2019-06-16 01:00:00 15 6 Sudeste 9 Este 0 943.3 1.3 32
2019-06-16 00:00:00 17.4 4 Sur 6 Sur 0 943 1.2 27
2019-06-15 23:00:00 18.9 0 Calma 5 Noroeste 0 942.7 1.1 25
2019-06-15 22:00:00 21.5 4 Noroeste 15 Noroeste 0 942 0.5 21
2019-06-15 21:00:00 23.9 8 Noroeste 19 Noroeste 0 941.8 0 17
2019-06-15 20:00:00 25 8 Oeste 23 Oeste 0 941.6 -0.7 17
2019-06-15 19:00:00 26.3 8 Oeste 28 Oeste 0 941.5 -1.2 15
2019-06-15 18:00:00 26.2 10 Oeste 25 Oeste 0 941.8 -1.3 17
2019-06-15 17:00:00 25.6 9 Sudoeste 27 Sur 0 942.3 -1.3 18
2019-06-15 16:00:00 24.8 9 Sudoeste 25 Sudoeste 0 942.7 -1.2 21
2019-06-15 15:00:00 23.9 7 Oeste 21 Sudoeste 0 943.1 -0.9 24
2019-06-15 14:00:00 22.6 9 Sudoeste 20 Oeste 0 943.6 -0.4 27
2019-06-15 13:00:00 21.3 7 Oeste 21 Oeste 0 943.9 -0.2 31
2019-06-15 12:00:00 20 6 Oeste 18 Oeste 0 944 0.3 34
2019-06-15 11:00:00 18.2 4 Oeste 14 Noroeste 0 944 0.6 39
2019-06-15 10:00:00 16.6 6 Noroeste 32 Noroeste 0 944.1 1.1 45
2019-06-15 09:00:00 14.9 7 Oeste 15 Oeste 0 943.7 1.2 49
2019-06-15 08:00:00 12.8 7 Sudoeste 14 Oeste 0 943.4 1.2 53
2019-06-15 07:00:00 11.7 5 Sudoeste 14 Sudoeste 0 943 0.7 55
2019-06-15 06:00:00 12.3 6 Sudoeste 15 Sudoeste 0 942.5 0.1 52
2019-06-15 05:00:00 12.7 8 Sudoeste 18 Sudoeste 0 942.2 0 50
2019-06-15 04:00:00 13.4 6 Sudoeste 14 Sudoeste 0 942.3 0.3 48
2019-06-15 03:00:00 14.1 7 Sudoeste 21 Sudoeste 0 942.4 0.9 46
2019-06-15 02:00:00 15.2 9 Oeste 22 Oeste 0 942.2 1.4 42
2019-06-15 01:00:00 16.2 9 Oeste 21 Oeste 0 942 2.4 38
2019-06-15 00:00:00 17.3 7 Sudoeste 23 Oeste 0 941.5 3 35
2019-06-14 23:00:00 18.5 10 Oeste 32 Oeste 0 940.8 3 33
2019-06-14 22:00:00 20.5 13 Oeste 33 Oeste 0 939.6 2.3 29
2019-06-14 21:00:00 22.5 16 Oeste 32 Sudoeste 0 938.5 1.2 26
2019-06-14 20:00:00 23.8 17 Oeste 38 Oeste 0 937.8 0.5 25
2019-06-14 19:00:00 25.9 19 Oeste 44 Sudoeste 0 937.3 -0.2 21
2019-06-14 18:00:00 26.8 17 Oeste 36 Oeste 0 937.3 -0.3 20
2019-06-14 17:00:00 26.8 16 Oeste 39 Sudoeste 0 937.3 -0.2 17
2019-06-14 16:00:00 26.9 16 Sudoeste 43 Oeste 0 937.5 -0.1 21
2019-06-14 15:00:00 25.3 16 Sudoeste 39 Sudoeste 0 937.6 0.1 22
2019-06-14 14:00:00 25.1 16 Sudoeste 41 Sudoeste 0 937.5 -0.1 25
2019-06-14 13:00:00 23.9 19 Sudoeste 36 Sudoeste 0 937.6 0.2 30
2019-06-14 12:00:00 23.1 15 Sudoeste 37 Oeste 0 937.5 0.3 35
2019-06-14 11:00:00 22.1 12 Sudoeste 30 Sudoeste 0 937.6 1 27
2019-06-14 10:00:00 20.4 11 Oeste 25 Oeste 0 937.4 1.4 29
2019-06-14 09:00:00 17.1 11 Sudoeste 37 Sudoeste 0 937.2 1.9 35
2019-06-14 08:00:00 16.7 8 Sudoeste 24 Sudoeste 0 936.6 1.5 35
2019-06-14 07:00:00 17.4 14 Sudoeste 27 Sudoeste 0 936 1.3 33
2019-06-14 06:00:00 17.2 10 Oeste 24 Oeste 0 935.3 0.9 38
2019-06-14 05:00:00 17.3 11 Oeste 25 Sudoeste 0 935.1 0.5 66
2019-06-14 04:00:00 18.6 11 Oeste 25 Sudoeste 0 934.7 -0.2 60
2019-06-14 03:00:00 20.3 12 Sudoeste 24 Sudoeste 0 934.4 -0.8 39
2019-06-14 02:00:00 17.1 4 Sudeste 13 Este 0 934.6 0.1 67
2019-06-14 01:00:00 18.2 8 Este 19 Este 0 934.9 1.4 63
2019-06-14 00:00:00 19.4 15 Este 32 Este 0 935.2 2.5 58
2019-06-13 23:00:00 20.4 19 Este 37 Este 0 934.5 2 54
2019-06-13 22:00:00 21.8 25 Este 41 Este 0 933.5 1.1 51
2019-06-13 21:00:00 26.9 3 Este 62 Este 0 932.7 -0.1 23
2019-06-13 20:00:00 27.9 6 Sudoeste 20 Sur 0 932.5 -0.7 23
2019-06-13 19:00:00 28.8 4 Oeste 36 Sudeste 0 932.4 -1.3 23
2019-06-13 18:00:00 28.9 7 Sudoeste 25 Sudoeste 0 932.8 -1.4 23
2019-06-13 17:00:00 28.6 10 Oeste 22 Sudoeste 0 933.2 -1.6 25
2019-06-13 16:00:00 27.5 7 Sudoeste 23 Sudeste 0 933.7 -1.5 29
2019-06-13 15:00:00 26.7 9 Sur 22 Sur 0 934.2 -1.5 30
2019-06-13 14:00:00 26.1 8 Sudoeste 20 Nordeste 0 934.8 -1 32
2019-06-13 13:00:00 24.2 8 Este 24 Sur 0 935.2 -0.6 38
2019-06-13 12:00:00 23.1 8 Sudoeste 24 Sur 0 935.7 0.2 42
2019-06-13 11:00:00 22.4 12 Sudoeste 27 Sur 0 935.8 0.6 42
2019-06-13 10:00:00 20.7 15 Sudoeste 28 Sur 0 935.8 1 50
2019-06-13 09:00:00 18 16 Sur 27 Sur 0 935.5 1 62
2019-06-13 08:00:00 16.3 9 Sur 17 Sur 0 935.2 0.8 65
2019-06-13 07:00:00 15.3 8 Sur 19 Sur 0 934.8 0.5 64
2019-06-13 06:00:00 15.8 13 Sur 24 Sur 0 934.5 0.1 60
2019-06-13 05:00:00 14.3 8 Sur 14 Sur 0 934.4 -0.3 68
2019-06-13 04:00:00 13.6 4 Nordeste 12 Este 0 934.3 -0.5 75
2019-06-13 03:00:00 14.8 9 Sudeste 12 Este 0 934.4 -0.1 64
2019-06-13 02:00:00 16.7 4 Este 17 Sur 0 934.7 0.2 48
2019-06-13 01:00:00 17.9 8 Sur 17 Sudeste 0 934.8 0.9 38
2019-06-13 00:00:00 18.2 8 Norte 11 Norte 0 934.5 0.8 39
2019-06-12 23:00:00 20.4 2 Sudeste 13 Nordeste 0 934.5 0.8 26
2019-06-12 22:00:00 22.7 4 Nordeste 74 Nordeste 0 933.9 0 22
2019-06-12 21:00:00 25.1 8 Sur 19 Sur 0 933.7 -0.8 22
2019-06-12 20:00:00 26 5 Noroeste 18 Oeste 0 933.7 -1.3 17
2019-06-12 19:00:00 27.5 4 Norte 24 Oeste 0 933.9 -1.6 15
2019-06-12 18:00:00 26.9 9 Oeste 38 Noroeste 0 934.5 -1.7 15
2019-06-12 17:00:00 26.3 10 Sudoeste 32 Oeste 0 935 -2 15
2019-06-12 16:00:00 25.8 9 Norte 31 Sudoeste 0 935.5 -1.9 15
2019-06-12 15:00:00 25.8 12 Oeste 28 Oeste 0 936.2 -1.6 16
2019-06-12 14:00:00 23.3 12 Sudoeste 23 Oeste 0 937 -0.8 20
2019-06-12 13:00:00 22.4 6 Sur 16 Sur 0 937.4 -0.5 21
2019-06-12 12:00:00 20.8 6 Este 18 Nordeste 0 937.8 -0.2 31
2019-06-12 11:00:00 19.4 11 Este 24 Nordeste 0 937.8 -0.1 40
2019-06-12 10:00:00 16.4 14 Este 24 Este 0 937.9 0.4 52
2019-06-12 09:00:00 13.6 17 Este 25 Este 0 938 0.4 62
2019-06-12 08:00:00 10.3 12 Este 21 Este 0 937.9 0.5 78
2019-06-12 07:00:00 8.5 12 Este 20 Este 0 937.5 0 85
2019-06-12 06:00:00 8.6 12 Este 19 Este 0 937.6 0 84
2019-06-12 05:00:00 9 10 Nordeste 16 Nordeste 0 937.4 -0.4 83
2019-06-12 04:00:00 10.1 11 Nordeste 17 Nordeste 0 937.5 -0.6 79
2019-06-12 03:00:00 10.8 12 Nordeste 17 Nordeste 0 937.6 -0.5 73
2019-06-12 02:00:00 11.8 6 Norte 14 Sudeste 0 937.8 -0.2 63
2019-06-12 01:00:00 12.8 10 Este 18 Sudeste 0 938.1 0.8 52
2019-06-12 00:00:00 14.1 9 Nordeste 13 Norte 0 938.1 1.1 31
2019-06-11 23:00:00 16.2 8 Norte 20 Norte 0 938 1.6 26
2019-06-11 22:00:00 18.3 11 Norte 24 Norte 0 937.3 1.1 25
2019-06-11 21:00:00 19.8 11 Norte 31 Nordeste 0 937 0.9 25
2019-06-11 20:00:00 20.9 15 Norte 32 Norte 0 936.4 0.7 26
2019-06-11 19:00:00 21.9 16 Norte 40 Norte 0 936.2 0.6 26
2019-06-11 18:00:00 22.6 17 Norte -- -- 0 936.1 0.7 27
2019-06-11 17:00:00 21.7 -- -- -- -- 0 935.7 0.6 29
2019-06-11 16:00:00 24.4 14 Noroeste 37 Norte 0 935.6 0.5 26
2019-06-11 15:00:00 22.5 13 Norte 36 Norte 0 935.4 0.1 29
2019-06-11 14:00:00 24.1 10 Noroeste 26 Norte 0 935.1 -0.4 26
2019-06-11 13:00:00 22.3 11 Oeste 26 Oeste 0 935.1 -0.1 28
2019-06-11 12:00:00 21.6 7 Noroeste 26 Noroeste 0 935.3 -0.1 29
2019-06-11 11:00:00 20.7 9 Noroeste 24 Oeste 0 935.5 0.1 31
2019-06-11 10:00:00 18.7 9 Oeste 20 Oeste 0 935.2 -0.3 32
2019-06-11 09:00:00 16.9 9 Oeste 18 Sudoeste 0 935.4 -0.1 39
2019-06-11 08:00:00 14.5 9 Sudoeste 22 Sudoeste 0 935.4 -0.1 47
2019-06-11 07:00:00 14.4 9 Sudoeste 16 Oeste 0 935.5 -0.4 40
2019-06-11 06:00:00 14.3 7 Oeste 19 Sudoeste 0 935.5 -0.8 38
2019-06-11 05:00:00 16.1 10 Sudoeste 22 Sudoeste 0 935.5 -1.2 31
2019-06-11 04:00:00 16.6 11 Sudoeste 21 Sudoeste 0 935.9 -1.2 31
2019-06-11 03:00:00 17.4 10 Sudoeste 19 Sudoeste 0 936.3 -1 31
2019-06-11 02:00:00 18.9 8 Oeste 22 Oeste 0 936.7 -0.5 28
2019-06-11 01:00:00 19.9 11 Oeste 22 Oeste 0 937.1 0.5 27
2019-06-11 00:00:00 21.2 11 Oeste 25 Sudoeste 0 937.3 0.8 28
2019-06-10 23:00:00 22.2 11 Oeste 23 Oeste 0 937.2 0.6 26
2019-06-10 22:00:00 23.7 10 Oeste 22 Sudoeste 0 936.6 -0.4 24
2019-06-10 21:00:00 24.8 6 Sudoeste 27 Oeste 0 936.5 -1 19
2019-06-10 20:00:00 25.7 7 Oeste 42 Noroeste 0 936.6 -1.3 20
2019-06-10 19:00:00 27.3 11 Oeste 24 Oeste 0 937 -1.4 18
2019-06-10 18:00:00 27.3 5 Oeste 27 Oeste 0 937.5 -1.6 18
2019-06-10 17:00:00 27.1 11 Oeste 24 Sudoeste 0 937.9 -1.9 16
2019-06-10 16:00:00 26.1 8 Oeste 23 Sudoeste 0 938.4 -1.7 19
2019-06-10 15:00:00 24.9 10 Sudoeste -- -- 0 939.1 -1.4 22
2019-06-10 14:00:00 25.1 8 Noroeste -- -- 0 939.8 -1 20
2019-06-10 13:00:00 23.5 10 Sudoeste -- -- 0 940.1 -0.7 25
2019-06-10 12:00:00 22.5 9 Oeste 19 Oeste 0 940.5 -0.2 30
2019-06-10 11:00:00 20.5 8 Oeste -- -- 0 940.8 0 34
2019-06-10 10:00:00 18.6 7 Oeste 17 Oeste 0 940.8 0.7 39
2019-06-10 09:00:00 16.7 6 Sudoeste 14 Oeste 0 940.7 0.5 45
2019-06-10 08:00:00 14.7 6 Sudoeste 41 Oeste 0 940.8 0.3 49
2019-06-10 07:00:00 13.8 8 Sudoeste 61 Noroeste 0 940.1 -0.8 50
2019-06-10 06:00:00 14.1 6 Sudoeste 14 Sudoeste 0 940.2 -0.7 49
2019-06-10 05:00:00 14.9 6 Sudoeste 15 Sudoeste 0 940.5 -0.3 46
2019-06-10 04:00:00 15.7 7 Sudoeste 17 Sudoeste 0 940.9 0.3 42
2019-06-10 03:00:00 16.6 9 Sudoeste 17 Sudoeste 0 940.9 0.5 36
2019-06-10 02:00:00 17.1 8 Sudoeste 14 Sudoeste 0 940.8 0.5 32
2019-06-10 01:00:00 18.2 5 Sudoeste 19 Oeste 0 940.6 1.1 28
2019-06-10 00:00:00 19.5 7 Oeste 17 Oeste 0 940.4 1.4 25
2019-06-09 23:00:00 20.9 7 Oeste 21 Oeste 0 940.3 1.5 22
2019-06-09 22:00:00 22.7 11 Oeste 30 Oeste 0 939.5 1 18
2019-06-09 21:00:00 24.6 14 Oeste 58 Noroeste 0 939 0.4 15
2019-06-09 20:00:00 25.7 16 Oeste 46 Oeste 0 938.8 -0.1 16
2019-06-09 19:00:00 27.9 12 Noroeste 38 Oeste 0 938.5 -1 16
2019-06-09 18:00:00 28.7 15 Oeste 37 Noroeste 0 938.6 -1.3 19
2019-06-09 17:00:00 28.5 12 Oeste 40 Oeste 0 938.9 -1.6 19
2019-06-09 16:00:00 28.2 11 Oeste 41 Oeste 0 939.5 -1.6 19
2019-06-09 15:00:00 27.7 9 Oeste 30 Oeste 0 939.9 -1.5 21
2019-06-09 14:00:00 26.4 13 Oeste 32 Sudoeste 0 940.5 -1.3 22
2019-06-09 13:00:00 26 9 Sudoeste 27 Oeste 0 941.1 -0.7 19
2019-06-09 12:00:00 25 10 Oeste 23 Oeste 0 941.4 -0.1 18
2019-06-09 11:00:00 22.6 8 Oeste 21 Oeste 0 941.8 0.3 25
2019-06-09 10:00:00 20.3 10 Oeste 50 Noroeste 0 941.8 0.8 30
2019-06-09 09:00:00 18.5 10 Sudoeste 23 Sudoeste 0 941.5 0.8 37
2019-06-09 08:00:00 15.9 6 Oeste 20 Sudoeste 0 941.5 0.6 53
2019-06-09 07:00:00 17.2 9 Sudoeste 19 Sudoeste 0 941 0 53
2019-06-09 06:00:00 18.6 9 Sudoeste 19 Sudoeste 0 940.7 -0.3 48
2019-06-09 05:00:00 16.4 4 Sudoeste 10 Sudoeste 0 940.9 -0.1 59
2019-06-09 04:00:00 15.5 3 Norte 6 Norte 0 941 -0.4 67
2019-06-09 03:00:00 16.3 3 Nordeste 11 Este 0 941 -0.6 66
2019-06-09 02:00:00 17 8 Este 20 Este 0 941 -0.3 64
2019-06-09 01:00:00 17.8 14 Este 22 Este 0 941.4 0.9 62
2019-06-09 00:00:00 19.1 -- -- -- -- 0 941.6 1.5 58
2019-06-08 23:00:00 20.3 -- -- -- -- 0 941.3 1.7 55
2019-06-08 22:00:00 21.2 -- -- -- -- 0 940.5 1 51
2019-06-08 21:00:00 24.4 -- -- -- -- 0 940.1 0.2 42
2019-06-08 20:00:00 28.4 -- -- -- -- 0 939.6 -0.5 19
2019-06-08 19:00:00 30.3 9 Oeste -- -- 0 939.5 -0.9 16
2019-06-08 18:00:00 30.5 10 Sudoeste 26 Sudoeste 0 939.9 -1 15
2019-06-08 17:00:00 29.7 10 Sudoeste 32 Sudoeste 0 940.1 -1.4 16
2019-06-08 16:00:00 29.5 13 Sudoeste 31 Sur 0 940.4 -1.9 16
2019-06-08 15:00:00 30 8 Sudoeste 49 Sur 0 940.9 -1.8 19
2019-06-08 14:00:00 28.4 12 Este 48 Nordeste 0 941.5 -1.4 22
2019-06-08 13:00:00 26.6 -- -- -- -- 0 942.3 -0.7 28
2019-06-08 12:00:00 24.5 -- -- -- -- 0 942.7 -0.1 34
2019-06-08 11:00:00 23.5 21 Sudeste 41 Este 0 942.9 0.1 32
2019-06-08 10:00:00 21.7 21 Este 41 Este 0 943 0.3 36
2019-06-08 09:00:00 18 17 Este 26 Este 0 942.8 -0.1 41
2019-06-08 08:00:00 13 15 Este 27 Este 0 942.8 -0.3 43
2019-06-08 07:00:00 11.5 19 Este 30 Este 0 942.7 -0.4 58
2019-06-08 06:00:00 9.2 9 Este 15 Este 0 942.9 -0.4 44
2019-06-08 05:00:00 8.8 8 Nordeste 12 Nordeste 0 943.1 -0.4 43
2019-06-08 04:00:00 8.9 5 Nordeste 8 Norte 0 943.1 -0.4 43
2019-06-08 03:00:00 9.9 5 Nordeste 8 Nordeste 0 943.3 -0.2 38
2019-06-08 02:00:00 11.6 3 Este 9 Sudeste 0 943.5 0.7 34
2019-06-08 01:00:00 13.2 4 Sudeste 8 Sudeste 0 943.5 1.5 29
2019-06-08 00:00:00 14.7 3 Este 11 Norte 0 943.5 1.9 29
2019-06-07 23:00:00 16.8 6 Nordeste 13 Norte 0 942.8 1.5 24
2019-06-07 22:00:00 19.3 6 Noroeste 18 Noroeste 0 942 0.9 16
2019-06-07 21:00:00 21.6 6 Noroeste 23 Sudoeste 0 941.6 0.5 15
2019-06-07 20:00:00 22.7 7 Oeste 38 Oeste 0 941.3 0 14
2019-06-07 19:00:00 24.2 7 Oeste 21 Noroeste 0 941.1 0 14
2019-06-07 18:00:00 24.1 6 Nordeste 24 Oeste 0 941.1 0 14
2019-06-07 17:00:00 24.3 7 Noroeste 28 Noroeste 0 941.3 0.1 14
2019-06-07 16:00:00 23.4 10 Noroeste 30 Noroeste 0 941.1 0.1 15
2019-06-07 15:00:00 22.1 9 Oeste 28 Oeste 0 941.1 0.3 19
2019-06-07 14:00:00 20.5 12 Oeste 28 Oeste 0 941.2 0.5 23
2019-06-07 13:00:00 19 14 Oeste 60 Noroeste 0 941 0.8 30
2019-06-07 12:00:00 17.7 12 Oeste 31 Oeste 0 940.8 1.6 41
2019-06-07 11:00:00 15.4 12 Oeste 30 Oeste 0 940.7 2.3 48
2019-06-07 10:00:00 14.1 13 Oeste 35 Oeste 0 940.2 2.7 54
2019-06-07 09:00:00 13.9 13 Sudoeste 30 Oeste 0 939.2 2.4 63
2019-06-07 08:00:00 13.6 15 Oeste 52 Noroeste 0 938.4 2 70
2019-06-07 07:00:00 14.4 11 Sudoeste 57 Este 0 937.5 1.5 51
2019-06-07 06:00:00 14.3 10 Sudoeste 24 Sur 0 936.8 1 45
2019-06-07 05:00:00 14.6 13 Sudoeste 22 Sudoeste 0 936.4 0.6 39
2019-06-07 04:00:00 15.4 13 Sudoeste 28 Sudoeste 0 936 0.5 28
2019-06-07 03:00:00 16 12 Sudoeste 25 Sudoeste 0 935.8 0.8 23
2019-06-07 02:00:00 16.9 8 Sudoeste 25 Sudoeste 0 935.8 1.2 23
2019-06-07 01:00:00 18.2 14 Sur 24 Sur 0 935.5 1.4 24
2019-06-07 00:00:00 18.4 11 Sur 27 Sudoeste 0 935 1.2 19
2019-06-06 23:00:00 21 12 Sudoeste 31 Sudoeste 0 934.6 1.1 16
2019-06-06 22:00:00 22.4 14 Sudoeste 31 Sudoeste 0 934.1 0.7 13
2019-06-06 21:00:00 24 14 Sudoeste 44 Sur 0 933.8 0 11
2019-06-06 20:00:00 25.1 21 Sudoeste 44 Sudoeste 0 933.5 -1.1 11
2019-06-06 19:00:00 26.7 15 Sudoeste 39 Sudoeste 0 933.4 -2 12
2019-06-06 18:00:00 26.8 19 Sudoeste 43 Sudoeste 0 933.8 -2.2 11
2019-06-06 17:00:00 26.3 18 Sudoeste 40 Sudoeste 0 934.6 -2.2 13
2019-06-06 16:00:00 26 17 Sudoeste 40 Sur 0 935.4 -2.2 13
2019-06-06 15:00:00 25.3 15 Sudoeste 30 Sur 0 936 -2 14
2019-06-06 14:00:00 23.7 10 Sudoeste 31 Sur 0 936.8 -1.4 20
2019-06-06 13:00:00 21.6 12 Sudoeste 28 Sudoeste 0 937.6 -1.1 22
2019-06-06 12:00:00 20 6 Sudeste 19 Sudoeste 0 938 -0.9 28
2019-06-06 11:00:00 18.3 7 Sudoeste 17 Sudoeste 0 938.2 -0.5 31
2019-06-06 10:00:00 16.5 5 Sudoeste 16 Sudoeste 0 938.7 0 35
2019-06-06 09:00:00 14.5 5 Sudoeste 16 Sudoeste 0 938.9 0.4 43
2019-06-06 08:00:00 11.9 6 Sur 13 Sudoeste 0 938.7 0.2 47
2019-06-06 07:00:00 10.4 7 Sur 13 Sudoeste 0 938.7 0.3 50
2019-06-06 06:00:00 11.8 7 Sudoeste 15 Sudoeste 0 938.5 -0.1 45
2019-06-06 05:00:00 12.7 9 Sudoeste 18 Sudoeste 0 938.5 -0.2 42
2019-06-06 04:00:00 13.2 8 Sudoeste 16 Sudoeste 0 938.4 -0.3 39
2019-06-06 03:00:00 13.5 5 Sudoeste 15 Sudoeste 0 938.6 -0.2 38
2019-06-06 02:00:00 14.7 8 Sudoeste 20 Sudoeste 0 938.7 0.5 35
2019-06-06 01:00:00 15.5 9 Oeste 24 Oeste 0 938.7 1.1 32
2019-06-06 00:00:00 16.3 10 Oeste 26 Sudoeste 0 938.8 1.6 31
2019-06-05 23:00:00 17.3 9 Oeste 22 Sudoeste 0 938.2 1.3 28
2019-06-05 22:00:00 18.4 10 Oeste 24 Oeste 0 937.6 1 25
2019-06-05 21:00:00 20 11 Oeste 30 Oeste 0 937.2 0.7 22
2019-06-05 20:00:00 20.8 14 Oeste 32 Oeste 0 936.9 0.1 22
2019-06-05 19:00:00 21.6 12 Oeste 29 Oeste 0 936.6 -0.4 21
2019-06-05 18:00:00 22.2 8 Norte 28 Norte 0 936.5 -0.5 20
2019-06-05 17:00:00 22.9 10 Oeste 35 Oeste 0 936.8 -0.2 19
2019-06-05 16:00:00 22.8 9 Oeste 33 Noroeste 0 937 0 20
2019-06-05 15:00:00 22 11 Noroeste 41 Oeste 0 937 -0.2 22
2019-06-05 14:00:00 21.9 12 Noroeste 39 Oeste 0 937 0 22
2019-06-05 13:00:00 18.3 12 Oeste 33 Oeste 0 937 0.2 33
2019-06-05 12:00:00 17.8 12 Oeste 40 Sudoeste 0 937.2 0.8 38
2019-06-05 11:00:00 15.8 18 Oeste 41 Oeste 0 937 1.3 45
2019-06-05 10:00:00 14.3 18 Oeste 39 Oeste 0 936.8 1.6 52
2019-06-05 09:00:00 12.7 21 Oeste 40 Oeste 0 936.4 2.2 60
2019-06-05 08:00:00 12.5 18 Sudoeste 42 Sudoeste 0 935.7 1.5 59
2019-06-05 07:00:00 13.8 18 Oeste 42 Sudoeste 0 935.2 1.2 52
2019-06-05 06:00:00 15.6 15 Oeste 41 Oeste 0 934.2 0.3 57
2019-06-05 05:00:00 16.5 15 Oeste 38 Oeste 0 934.2 0.2 57
2019-06-05 04:00:00 18.2 17 Oeste 36 Oeste 0 934 -0.1 59
2019-06-05 03:00:00 19.7 13 Oeste 27 Oeste 0 933.9 -0.2 54
2019-06-05 02:00:00 20.4 10 Oeste 27 Sudoeste 0 934 0.4 48
2019-06-05 01:00:00 20.8 10 Oeste 22 Oeste 0 934.1 1.3 45
2019-06-05 00:00:00 22.2 10 Oeste 20 Oeste 0 934.1 1.5 40
2019-06-04 23:00:00 24.4 8 Oeste 22 Oeste 0 933.6 0.7 31
2019-06-04 22:00:00 26.8 9 Sudoeste 27 Sudoeste 0 932.8 -0.2 27
2019-06-04 21:00:00 27.8 10 Oeste 31 Oeste 0 932.6 -0.9 25
2019-06-04 20:00:00 28.3 15 Oeste 33 Sudoeste 0 932.9 -1.2 25
2019-06-04 19:00:00 30 10 Oeste 33 Sudoeste 0 933 -1.8 22
2019-06-04 18:00:00 30.4 17 Sudoeste 39 Sudoeste 0 933.5 -2 14
2019-06-04 17:00:00 31.5 16 Sudoeste 36 Sur 0 934.1 -2 13
2019-06-04 16:00:00 31.4 14 Sudoeste 41 Sudoeste 0 934.8 -2.1 14
2019-06-04 15:00:00 31.5 15 Sudoeste 37 Sudoeste 0 935.5 -1.9 14
2019-06-04 14:00:00 30.3 8 Sudoeste 35 Sudoeste 0 936.1 -1.6 15
2019-06-04 13:00:00 29.3 14 Oeste 36 Sudoeste 0 936.9 -1 18
2019-06-04 12:00:00 28 12 Sudoeste 24 Oeste 0 937.4 -0.4 21
2019-06-04 11:00:00 25.8 10 Sudoeste 22 Sudoeste 0 937.7 -0.1 29
2019-06-04 10:00:00 24.3 11 Sudoeste 20 Sudoeste 0 937.9 0.3 31
2019-06-04 09:00:00 21.6 11 Sur 18 Sur 0 937.8 0.1 34
2019-06-04 08:00:00 18.8 11 Sur 18 Sudoeste 0 937.8 0 39
2019-06-04 07:00:00 18.1 10 Sur 18 Sur 0 937.6 -0.1 36
2019-06-04 06:00:00 18.5 6 Sur 12 Sur 0 937.7 -0.3 31
2019-06-04 05:00:00 19 5 Norte 20 Sudoeste 0 937.8 -0.3 28
2019-06-04 04:00:00 21.5 10 Sudoeste 18 Sudoeste 0 937.7 -0.9 23
2019-06-04 03:00:00 22.2 10 Sudoeste 21 Sudoeste 0 938 -0.8 23
2019-06-04 02:00:00 23.5 11 Sudoeste 20 Sudoeste 0 938.1 -0.4 21
2019-06-04 01:00:00 23.8 8 Sudoeste 14 Sur 0 938.6 0.7 21
2019-06-04 00:00:00 26.1 7 Sudoeste 17 Sudoeste 0 938.8 1 18
2019-06-03 23:00:00 26.9 7 Sur 13 Sur 0 938.5 0.8 17
2019-06-03 22:00:00 27.9 4 Sudoeste 17 Oeste 0 937.9 0 17
2019-06-03 21:00:00 31 6 Oeste 23 Oeste 0 937.8 -0.7 13
2019-06-03 20:00:00 32.7 10 Oeste 65 Noroeste 0 937.7 -1.3 11
2019-06-03 19:00:00 34.8 11 Oeste 28 Noroeste 0 937.9 -2 10
2019-06-03 18:00:00 34.4 12 Sudoeste 34 Sur 0 938.5 -2.1 10
2019-06-03 17:00:00 35.2 10 Oeste 28 Oeste 0 939 -2.1 11
2019-06-03 16:00:00 34.3 10 Oeste 32 Oeste 0 939.9 -1.6 11
2019-06-03 15:00:00 32.6 10 Sudoeste 22 Oeste 0 940.6 -1.2 12
2019-06-03 14:00:00 33.3 9 Noroeste 27 Oeste 0 941.1 -0.7 12
2019-06-03 13:00:00 32.1 7 Oeste 22 Sudoeste 0 941.5 -0.4 12
2019-06-03 12:00:00 30 10 Sudoeste 23 Oeste 0 941.8 0.2 16
2019-06-03 11:00:00 28 11 Oeste 25 Sudoeste 0 941.8 0.3 20
2019-06-03 10:00:00 26.6 12 Oeste 24 Sudoeste 0 941.9 0.4 21
2019-06-03 09:00:00 23.6 10 Sudoeste 54 Este 0 941.6 0.6 26
2019-06-03 08:00:00 16.9 5 Sur 51 Este 0 941.5 0.9 43
2019-06-03 07:00:00 14.5 3 Este 7 Noroeste 0 941.5 0.7 51
2019-06-03 06:00:00 16.5 5 Noroeste 12 Sudoeste 0 941 0 44
2019-06-03 05:00:00 18 3 Este 13 Sur 0 940.6 -0.7 38
2019-06-03 04:00:00 20 3 Este 22 Sur 0 940.8 -0.5 31
2019-06-03 03:00:00 22.9 11 Sur 20 Sur 0 941 -0.1 26
2019-06-03 02:00:00 23.2 8 Sudoeste 25 Sudoeste 0 941.3 0.3 26
2019-06-03 01:00:00 23.9 17 Sur 29 Sur 0 941.3 0.9 24
2019-06-03 00:00:00 24.5 12 Sur -- -- 0 941.1 0.9 24
2019-06-02 23:00:00 25.2 11 Sur -- -- 0 941 0.8 24
2019-06-02 22:00:00 27.8 6 Sur -- -- 0 940.4 0.1 18
2019-06-02 21:00:00 30.8 7 Sur 27 Norte 0 940.2 -0.4 13
2019-06-02 20:00:00 31.7 -- -- -- -- 0 940.2 -0.8 13
2019-06-02 19:00:00 33.7 5 Noroeste 60 Este 0 940.3 -1.1 11
2019-06-02 18:00:00 33 -- -- -- -- 0 940.6 -1.5 12
2019-06-02 17:00:00 32.8 10 Nordeste -- -- 0 941 -1.9 12
2019-06-02 16:00:00 33.3 -- -- -- -- 0 941.4 -2 13
2019-06-02 15:00:00 31.7 8 Sur -- -- 0 942.1 -1.5 14
2019-06-02 14:00:00 30.8 7 Sur -- -- 0 942.9 -0.9 16
2019-06-02 13:00:00 30 4 Sudoeste 12 Noroeste 0 943.4 -0.5 16
2019-06-02 12:00:00 27.5 6 Sudoeste 35 Oeste 0 943.6 0.1 20
2019-06-02 11:00:00 25.6 4 Oeste 10 Sur 0 943.8 0.3 25
2019-06-02 10:00:00 22.2 3 Norte 10 Nordeste 0 943.9 0.6 32
2019-06-02 09:00:00 17.6 6 Nordeste 40 Nordeste 0 943.5 0.5 44
2019-06-02 08:00:00 13.1 4 Este 7 Este 0 943.5 0.5 56
2019-06-02 07:00:00 11.2 4 Este 10 Este 0 943.3 0.2 62
2019-06-02 06:00:00 11.5 8 Este 10 Este 0 943 -0.1 58
2019-06-02 05:00:00 12.7 6 Este 9 Este 0 943 -0.1 52
2019-06-02 04:00:00 13.9 3 Este 9 Este 0 943.1 -0.1 48
2019-06-02 03:00:00 15.6 8 Nordeste 18 Nordeste 0 943.1 -0.2 40
2019-06-02 02:00:00 18.6 6 Sudeste 15 Sudeste 0 943.1 0.1 31
2019-06-02 01:00:00 19.9 12 Sudeste 18 Sudeste 0 943.2 0.7 30
2019-06-02 00:00:00 20.7 10 Sur 15 Sudeste 0 943.3 0.9 27
2019-06-01 23:00:00 21.7 7 Sur 14 Sudeste 0 943 0.7 28
2019-06-01 22:00:00 25.7 7 Sudeste 15 Sudeste 0 942.5 0.1 22
2019-06-01 21:00:00 28.3 10 Sudeste 23 Sudeste 0 942.4 -0.2 17
2019-06-01 20:00:00 29.3 12 Sudeste 38 Sudeste 0 942.3 -0.7 15
2019-06-01 19:00:00 30.7 18 Este 43 Este 0 942.4 -1 13
2019-06-01 18:00:00 31.2 17 Este 36 Este 0 942.6 -1.3 12
2019-06-01 17:00:00 30.9 14 Este 40 Este 0 943 -1.5 13
2019-06-01 16:00:00 31.1 13 Este 33 Este 0 943.4 -1.6 14
2019-06-01 15:00:00 30.2 15 Este 36 Este 0 943.9 -1.5 17
2019-06-01 14:00:00 29.3 15 Sudeste 37 Este 0 944.5 -1 20
2019-06-01 13:00:00 28.5 17 Este 29 Este 0 945 -0.6 21
2019-06-01 12:00:00 27.1 16 Este 30 Este 0 945.4 -0.2 27
2019-06-01 11:00:00 24.7 15 Este 22 Este 0 945.5 -0.1 32
2019-06-01 10:00:00 20.8 15 Este 28 Este 0 945.6 0.2 42
2019-06-01 09:00:00 16.8 12 Este 36 Este 0 945.6 0.5 54
2019-06-01 08:00:00 12.9 9 Este 38 Nordeste 0 945.6 0.5 69
2019-06-01 07:00:00 11.2 10 Este 15 Este 0 945.4 0.4 76
2019-06-01 06:00:00 11.7 11 Este 19 Este 0 945.1 0.1 74
2019-06-01 05:00:00 12.3 9 Nordeste 12 Nordeste 0 945.1 -0.1 69
2019-06-01 04:00:00 13.3 5 Este 13 Este 0 945 -0.3 62
2019-06-01 03:00:00 14.6 10 Este 17 Este 0 945 -0.2 54
2019-06-01 02:00:00 15.2 8 Este 15 Nordeste 0 945.2 0.3 46
2019-06-01 01:00:00 15.8 8 Nordeste 10 Nordeste 0 945.3 0.7 41
2019-06-01 00:00:00 18.3 4 Sudeste 10 Sur 0 945.2 0.9 33
2019-05-31 23:00:00 20.9 8 Sur 14 Sudeste 0 944.9 0.6 29
2019-05-31 22:00:00 23.9 10 Sudeste 21 Este 0 944.6 0.3 23
2019-05-31 21:00:00 26.2 16 Este 31 Este 0 944.3 -0.2 19
2019-05-31 20:00:00 27.9 22 Este 38 Este 0 944.3 -0.5 16
2019-05-31 19:00:00 29.4 20 Este 46 Este 0 944.3 -0.9 14
2019-05-31 18:00:00 29.7 18 Este 31 Este 0 944.5 -1.2 13
2019-05-31 17:00:00 30 19 Este 36 Este 0 944.8 -1.3 13
2019-05-31 16:00:00 29.5 18 Este 37 Este 0 945.2 -1.3 16
2019-05-31 15:00:00 28.7 17 Nordeste 32 Este 0 945.7 -1.1 16
2019-05-31 14:00:00 27.9 18 Este 41 Este 0 946.1 -0.9 20
2019-05-31 13:00:00 27.6 18 Nordeste 31 Este 0 946.5 -0.7 21
2019-05-31 12:00:00 26 17 Este 25 Nordeste 0 946.8 -0.2 27
2019-05-31 11:00:00 22.9 16 Este 28 Nordeste 0 947 -0.2 37
2019-05-31 10:00:00 20 19 Este 59 Nordeste 0 947.2 0.3 48
2019-05-31 09:00:00 16.2 14 Este 42 Este 0 947 0.4 60
2019-05-31 08:00:00 12.4 12 Este 58 Nordeste 0 947.2 0.5 75
2019-05-31 07:00:00 10.6 9 Este 15 Este 0 946.9 0.3 81
2019-05-31 06:00:00 11.3 9 Nordeste 14 Este 0 946.6 -0.4 77
2019-05-31 05:00:00 11.7 9 Nordeste 13 Nordeste 0 946.7 -0.5 71
2019-05-31 04:00:00 12.2 5 Este 13 Este 0 946.6 -0.4 61
2019-05-31 03:00:00 13.5 10 Este 15 Este 0 947 0.2 57
2019-05-31 02:00:00 14 6 Nordeste 10 Nordeste 0 947.2 0.7 50
2019-05-31 01:00:00 15.9 4 Este 8 Nordeste 0 947 1.1 43
2019-05-31 00:00:00 17.5 3 Sudeste 11 Sur 0 946.8 1.1 38
2019-05-30 23:00:00 20.4 6 Sur 10 Sur 0 946.5 1 31
2019-05-30 22:00:00 23.4 7 Sudeste 17 Sudeste 0 945.9 0.3 25
2019-05-30 21:00:00 25.2 14 Este 69 Este 0 945.7 0 21
2019-05-30 20:00:00 26.6 18 Este 67 Sudeste 0 945.5 -0.5 18
2019-05-30 19:00:00 27.6 21 Este 38 Nordeste 0 945.6 -0.7 17
2019-05-30 18:00:00 28.3 21 Este 35 Nordeste 0 945.7 -0.8 15
2019-05-30 17:00:00 28.4 21 Nordeste 33 Nordeste 0 946 -1.1 16
2019-05-30 16:00:00 27.8 17 Este 33 Este 0 946.3 -1 16
2019-05-30 15:00:00 27.2 15 Este 34 Este 0 946.5 -1.1 18
2019-05-30 14:00:00 26.1 18 Este 42 Nordeste 0 947.1 -0.7 21
2019-05-30 13:00:00 24.1 18 Este 29 Nordeste 0 947.3 -0.7 27
2019-05-30 12:00:00 22.4 16 Este 29 Este 0 947.6 -0.2 32
2019-05-30 11:00:00 20 20 Nordeste 32 Nordeste 0 947.8 0.3 38
2019-05-30 10:00:00 17.4 19 Este 31 Este 0 948 0.9 47
2019-05-30 09:00:00 14.7 18 Este 67 Este 0 947.8 1 56
2019-05-30 08:00:00 11.4 13 Este 19 Este 0 947.5 1.1 70
2019-05-30 07:00:00 10 13 Nordeste 18 Nordeste 0 947.1 0.5 77
2019-05-30 06:00:00 10.3 12 Este 19 Este 0 946.8 0.3 77
2019-05-30 05:00:00 10.8 13 Nordeste 18 Nordeste 0 946.4 -0.1 74
2019-05-30 04:00:00 12 11 Nordeste 19 Este 0 946.6 0.2 69
2019-05-30 03:00:00 13.4 12 Nordeste 17 Este 0 946.5 0.6 58
2019-05-30 02:00:00 15.6 9 Este 19 Nordeste 0 946.5 1.1 44
2019-05-30 01:00:00 17.7 14 Nordeste 22 Este 0 946.4 1.9 38
2019-05-30 00:00:00 19 13 Nordeste 26 Norte 0 945.9 1.9 33
2019-05-29 23:00:00 20.6 16 Nordeste 26 Nordeste 0 945.4 1.9 30
2019-05-29 22:00:00 22.2 16 Norte 37 Norte 0 944.5 1 27
2019-05-29 21:00:00 24.2 19 Norte 79 Norte 0 944 0.4 24
2019-05-29 20:00:00 25.3 15 Norte 42 Nordeste 0 943.5 -0.3 22
2019-05-29 19:00:00 27.2 13 Norte 32 Norte 0 943.5 -0.6 20
2019-05-29 18:00:00 26.9 17 Norte 34 Norte 0 943.6 -0.9 20
2019-05-29 17:00:00 26.2 14 Nordeste 33 Norte 0 943.8 -1.2 20
2019-05-29 16:00:00 26.1 14 Norte 35 Nordeste 0 944.1 -1 18
2019-05-29 15:00:00 25.2 15 Norte 32 Norte 0 944.5 -0.8 16
2019-05-29 14:00:00 22.7 13 Nordeste 28 Norte 0 945 -0.9 18
2019-05-29 13:00:00 21 14 Nordeste 30 Nordeste 0 945.1 -0.9 22
2019-05-29 12:00:00 19.7 15 Norte 30 Nordeste 0 945.3 -0.1 27
2019-05-29 11:00:00 16.9 15 Nordeste 28 Norte 0 945.9 0.9 33
2019-05-29 10:00:00 14.8 18 Nordeste 27 Nordeste 0 946 1.6 38
2019-05-29 09:00:00 13.2 15 Nordeste 24 Nordeste 0 945.4 1.4 44
2019-05-29 08:00:00 10.9 4 Nordeste 46 Nordeste 0 945 1.3 54
2019-05-29 07:00:00 10.1 4 Norte 19 Norte 0 944.4 0.8 56
2019-05-29 06:00:00 11 10 Norte 19 Norte 0 944 0.6 53
2019-05-29 05:00:00 12.2 8 Norte 17 Norte 0 943.7 0.2 50
2019-05-29 04:00:00 12 5 Norte 10 Nordeste 0 943.6 0.8 54
2019-05-29 03:00:00 13.7 6 Nordeste 10 Norte 0 943.4 1.5 48
2019-05-29 02:00:00 15.5 6 Nordeste 26 Nordeste 0 943.5 2.6 42
2019-05-29 01:00:00 17.6 18 Norte 37 Norte 0 942.8 2.8 36
2019-05-29 00:00:00 19.2 19 Norte 32 Nordeste 0 941.9 2.4 32
2019-05-28 23:00:00 20.6 14 Norte 29 Norte 0 940.9 1.9 23
2019-05-28 22:00:00 22.2 8 Nordeste 21 Norte 0 940 1.5 21
2019-05-28 21:00:00 24.9 13 Norte 30 Norte 0 939.5 1 17
2019-05-28 20:00:00 26.2 15 Norte 33 Noroeste 0 939 0.6 14
2019-05-28 19:00:00 28.7 10 Noroeste 33 Norte 0 938.5 -0.1 13
2019-05-28 18:00:00 29.2 9 Noroeste 31 Norte 0 938.5 -0.3 16
2019-05-28 17:00:00 29 12 Norte 28 Norte 0 938.4 -0.5 16
2019-05-28 16:00:00 29 9 Noroeste 28 Norte 0 938.6 -0.6 19
2019-05-28 15:00:00 28.7 12 Noroeste 28 Norte 0 938.8 -0.3 22
2019-05-28 14:00:00 27.7 12 Norte -- -- 0 938.9 -0.3 25
2019-05-28 13:00:00 26.3 9 Noroeste 28 Noroeste 0 939.2 0.2 30
2019-05-28 12:00:00 23.4 8 Norte 33 Nordeste 0 939.1 0.4 37
2019-05-28 11:00:00 20.9 8 Nordeste 47 Nordeste 0 939.2 1.2 45
2019-05-28 10:00:00 19.1 11 Nordeste 41 Nordeste 0 939 1.4 51
2019-05-28 09:00:00 16.7 10 Norte 35 Norte 0 938.7 1.3 60
2019-05-28 08:00:00 12.9 9 Norte 30 Norte 0 938 0.7 71
2019-05-28 07:00:00 12.1 8 Norte 12 Norte 0 937.6 0.1 74
2019-05-28 06:00:00 12.9 5 Nordeste 14 Norte 0 937.4 -0.2 71
2019-05-28 05:00:00 14.3 7 Este 20 Sudeste 0 937.3 -0.3 66
2019-05-28 04:00:00 14.7 7 Este 17 Nordeste 0 937.5 0.6 65
2019-05-28 03:00:00 16.1 12 Nordeste 19 Nordeste 0 937.6 1.1 62
2019-05-28 02:00:00 17 9 Nordeste 15 Nordeste 0 937.6 1.6 49
2019-05-28 01:00:00 18.8 6 Nordeste 15 Norte 0 936.9 1.4 39
2019-05-28 00:00:00 21 6 Norte 14 Norte 0 936.5 1.4 32
2019-05-27 23:00:00 22.1 5 Norte 14 Norte 0 936 1.1 28
2019-05-27 22:00:00 23.7 4 Norte 14 Norte 0 935.5 0.3 26
2019-05-27 21:00:00 26.5 -- -- -- -- 0 935.1 -0.4 23
2019-05-27 20:00:00 27.8 6 Noroeste -- -- 0 934.9 -1.2 22
2019-05-27 19:00:00 29.9 -- -- -- -- 0 935.2 -1.5 21
2019-05-27 18:00:00 30.2 8 Norte -- -- 0 935.5 -1.9 20
2019-05-27 17:00:00 29 10 Oeste 30 Oeste 0 936.1 -1.7 22
2019-05-27 16:00:00 29 10 Oeste 30 Norte 0 936.7 -1.9 22
2019-05-27 15:00:00 28.7 10 Noroeste 29 Noroeste 0 937.4 -1.7 23
2019-05-27 14:00:00 27.1 7 Noroeste 19 Noroeste 0 937.8 -1.5 25
2019-05-27 13:00:00 25.3 5 Norte 21 Norte 0 938.6 -1.2 28
2019-05-27 12:00:00 23.5 6 Norte 15 Noroeste 0 939.1 -0.5 30
2019-05-27 11:00:00 20.7 5 Nordeste 34 Nordeste 0 939.3 -0.1 35
2019-05-27 10:00:00 18.2 4 Norte 57 Sudoeste 0 939.8 0.6 44
2019-05-27 09:00:00 15.2 3 Nordeste 9 Norte 0 939.6 0.5 55
2019-05-27 08:00:00 11.8 2 Nordeste 9 Oeste 0 939.4 0.3 61
2019-05-27 07:00:00 9.2 4 Sudoeste 9 Sudoeste 0 939.2 -0.2 67
2019-05-27 06:00:00 9.7 4 Norte 6 Norte 0 939.1 -0.6 61
2019-05-27 05:00:00 11 0 Calma 4 Nordeste 0 939.1 -0.8 53
2019-05-27 04:00:00 11.5 3 Este 5 Norte 0 939.4 -0.7 51
2019-05-27 03:00:00 13.6 5 Norte 7 Norte 0 939.7 -0.4 44
2019-05-27 02:00:00 14 6 Este 8 Este 0 939.9 0 42
2019-05-27 01:00:00 16 3 Este 14 Norte 0 940.1 0.8 35
2019-05-27 00:00:00 18.3 8 Norte 13 Norte 0 940.1 1 31
2019-05-26 23:00:00 20 8 Norte 14 Nordeste 0 939.9 0.8 30
2019-05-26 22:00:00 21.9 6 Norte 27 Norte 0 939.3 0.1 27
2019-05-26 21:00:00 24.1 15 Norte 33 Norte 0 939.1 -0.3 21
2019-05-26 20:00:00 25.1 20 Norte 34 Norte 0 939.1 -0.8 19
2019-05-26 19:00:00 26.8 13 Norte 40 Norte 0 939.2 -1.2 19
2019-05-26 18:00:00 26.7 15 Norte 36 Norte 0 939.4 -1.4 18
2019-05-26 17:00:00 26.9 14 Norte 37 Norte 0 939.9 -1.5 18
2019-05-26 16:00:00 25.9 15 Norte 35 Norte 0 940.4 -1.4 19
2019-05-26 15:00:00 25.4 15 Norte 35 Norte 0 940.8 -1.4 19
2019-05-26 14:00:00 24.5 15 Norte 33 Norte 0 941.4 -1 21
2019-05-26 13:00:00 23.3 13 Norte 28 Norte 0 941.8 -0.8 22
2019-05-26 12:00:00 19.7 6 Noroeste 24 Norte 0 942.2 -0.3 39
2019-05-26 11:00:00 17.5 11 Norte 86 Este 0 942.4 -0.1 47
2019-05-26 10:00:00 16.1 9 Norte 21 Norte 0 942.6 0.4 51
2019-05-26 09:00:00 14.6 6 Norte 78 Nordeste 0 942.5 0.7 57
2019-05-26 08:00:00 11.7 2 Noroeste 11 Norte 0 942.5 0.6 67
2019-05-26 07:00:00 10.1 4 Nordeste 11 Norte 0 942.2 0.4 72
2019-05-26 06:00:00 10.9 5 Norte -- -- 0 941.8 -0.1 69
2019-05-26 05:00:00 11.3 2 Sur 18 Nordeste 0 941.9 0 69
2019-05-26 04:00:00 12.2 8 Nordeste 12 Norte 0 941.8 -0.2 65
2019-05-26 03:00:00 13.6 7 Norte 16 Nordeste 0 941.9 -0.1 60
2019-05-26 02:00:00 15 6 Nordeste 13 Nordeste 0 941.9 0.2 55
2019-05-26 01:00:00 16.9 11 Norte 20 Norte 0 942 0.9 47
2019-05-26 00:00:00 19.3 6 Norte 15 Nordeste 0 942 1.5 38